sensor_id;sensor_type;location;lat;lon;timestamp;pressure;altitude;pressure_sealevel;temperature;humidity
52839;BME280;39219;53.678;9.856;2023-04-25T00:01:02;76397.38;;;-147.77;99.81
52839;BME280;39219;53.678;9.856;2023-04-25T00:03:30;76387.28;;;-147.77;99.27
52839;BME280;39219;53.678;9.856;2023-04-25T00:05:58;76385.25;;;-147.77;99.65
52839;BME280;39219;53.678;9.856;2023-04-25T00:08:27;76387.28;;;-147.77;99.53
52839;BME280;39219;53.678;9.856;2023-04-25T00:10:53;76411.53;;;-147.77;96.70
52839;BME280;39219;53.678;9.856;2023-04-25T00:13:20;76423.69;;;-147.77;97.10
52839;BME280;39219;53.678;9.856;2023-04-25T00:15:47;76433.78;;;-147.77;95.87
52839;BME280;39219;53.678;9.856;2023-04-25T00:18:13;76439.88;;;-147.77;95.41
52839;BME280;39219;53.678;9.856;2023-04-25T00:20:40;76435.81;;;-147.77;94.59
52839;BME280;39219;53.678;9.856;2023-04-25T00:23:11;76437.84;;;-147.77;93.87
52839;BME280;39219;53.678;9.856;2023-04-25T00:25:37;76445.94;;;-147.77;93.78
52839;BME280;39219;53.678;9.856;2023-04-25T00:28:04;76445.94;;;-147.77;93.13
52839;BME280;39219;53.678;9.856;2023-04-25T00:30:30;76439.88;;;-147.77;91.78
52839;BME280;39219;53.678;9.856;2023-04-25T00:32:56;76435.81;;;-147.77;91.14
52839;BME280;39219;53.678;9.856;2023-04-25T00:35:23;76468.19;;;-147.77;91.24
52839;BME280;39219;53.678;9.856;2023-04-25T00:37:49;76458.06;;;-147.77;90.36
52839;BME280;39219;53.678;9.856;2023-04-25T00:40:17;76456.06;;;-147.77;89.07
52839;BME280;39219;53.678;9.856;2023-04-25T00:42:45;76470.22;;;-147.77;88.81
52839;BME280;39219;53.678;9.856;2023-04-25T00:45:13;76474.25;;;-147.77;88.64
52839;BME280;39219;53.678;9.856;2023-04-25T00:47:40;76472.22;;;-147.77;87.76
52839;BME280;39219;53.678;9.856;2023-04-25T00:50:08;76484.38;;;-147.77;87.22
52839;BME280;39219;53.678;9.856;2023-04-25T00:52:34;76472.22;;;-147.77;87.55
52839;BME280;39219;53.678;9.856;2023-04-25T00:55:01;76476.28;;;-147.77;86.80
52839;BME280;39219;53.678;9.856;2023-04-25T00:57:29;76486.38;;;-147.77;86.22
52839;BME280;39219;53.678;9.856;2023-04-25T00:59:56;76478.31;;;-147.77;85.90
52839;BME280;39219;53.678;9.856;2023-04-25T01:02:22;76492.47;;;-147.77;85.68
52839;BME280;39219;53.678;9.856;2023-04-25T01:04:50;76508.66;;;-147.77;84.41
52839;BME280;39219;53.678;9.856;2023-04-25T01:07:17;76506.63;;;-147.77;85.00
52839;BME280;39219;53.678;9.856;2023-04-25T01:09:43;76510.66;;;-147.77;84.04
52839;BME280;39219;53.678;9.856;2023-04-25T01:12:10;76508.66;;;-147.77;84.18
52839;BME280;39219;53.678;9.856;2023-04-25T01:14:39;76508.66;;;-147.77;84.47
52839;BME280;39219;53.678;9.856;2023-04-25T01:17:05;76510.66;;;-147.77;83.88
52839;BME280;39219;53.678;9.856;2023-04-25T01:19:34;76528.88;;;-147.77;82.99
52839;BME280;39219;53.678;9.856;2023-04-25T01:22:02;76528.88;;;-147.77;82.58
52839;BME280;39219;53.678;9.856;2023-04-25T01:24:31;76532.91;;;-147.77;81.52
52839;BME280;39219;53.678;9.856;2023-04-25T01:26:58;76545.06;;;-147.77;81.16
52839;BME280;39219;53.678;9.856;2023-04-25T01:29:26;76545.06;;;-147.77;80.48
52839;BME280;39219;53.678;9.856;2023-04-25T01:31:53;76536.97;;;-147.77;80.27
52839;BME280;39219;53.678;9.856;2023-04-25T01:34:20;76536.97;;;-147.77;78.56
52839;BME280;39219;53.678;9.856;2023-04-25T01:36:48;76549.09;;;-147.77;77.19
52839;BME280;39219;53.678;9.856;2023-04-25T01:39:17;76557.19;;;-147.77;78.16
52839;BME280;39219;53.678;9.856;2023-04-25T01:41:44;76569.34;;;-147.77;77.31
52839;BME280;39219;53.678;9.856;2023-04-25T01:44:11;76549.09;;;-147.77;76.93
52839;BME280;39219;53.678;9.856;2023-04-25T01:46:37;76567.31;;;-147.77;75.63
52839;BME280;39219;53.678;9.856;2023-04-25T01:49:04;76573.38;;;-147.77;75.33
52839;BME280;39219;53.678;9.856;2023-04-25T01:51:30;76573.38;;;-147.77;74.63
52839;BME280;39219;53.678;9.856;2023-04-25T01:53:57;76575.41;;;-147.77;74.86
52839;BME280;39219;53.678;9.856;2023-04-25T01:56:25;76579.44;;;-147.77;74.79
52839;BME280;39219;53.678;9.856;2023-04-25T01:58:56;76583.50;;;-147.77;74.80
52839;BME280;39219;53.678;9.856;2023-04-25T02:01:22;76581.47;;;-147.77;75.06
52839;BME280;39219;53.678;9.856;2023-04-25T02:03:49;76583.50;;;-147.77;74.50
52839;BME280;39219;53.678;9.856;2023-04-25T02:06:15;76585.50;;;-147.77;74.48
52839;BME280;39219;53.678;9.856;2023-04-25T02:08:42;76587.53;;;-147.77;74.76
52839;BME280;39219;53.678;9.856;2023-04-25T02:11:08;76593.59;;;-147.77;73.89
52839;BME280;39219;53.678;9.856;2023-04-25T02:13:36;76603.72;;;-147.77;74.33
52839;BME280;39219;53.678;9.856;2023-04-25T02:16:03;76619.91;;;-147.77;74.87
52839;BME280;39219;53.678;9.856;2023-04-25T02:18:29;76619.91;;;-147.77;75.32
52839;BME280;39219;53.678;9.856;2023-04-25T02:20:56;76625.97;;;-147.77;74.92
52839;BME280;39219;53.678;9.856;2023-04-25T02:23:22;76630.00;;;-147.77;75.56
52839;BME280;39219;53.678;9.856;2023-04-25T02:25:50;76621.94;;;-147.77;75.63
52839;BME280;39219;53.678;9.856;2023-04-25T02:28:16;76617.88;;;-147.77;74.69
52839;BME280;39219;53.678;9.856;2023-04-25T02:30:44;76617.88;;;-147.77;74.08
52839;BME280;39219;53.678;9.856;2023-04-25T02:33:11;76617.88;;;-147.77;74.22
52839;BME280;39219;53.678;9.856;2023-04-25T02:35:37;76619.91;;;-147.77;74.00
52839;BME280;39219;53.678;9.856;2023-04-25T02:38:04;76628.00;;;-147.77;73.98
52839;BME280;39219;53.678;9.856;2023-04-25T02:40:30;76621.94;;;-147.77;73.96
52839;BME280;39219;53.678;9.856;2023-04-25T02:42:57;76632.03;;;-147.77;73.29
52839;BME280;39219;53.678;9.856;2023-04-25T02:45:23;76636.09;;;-147.77;73.75
52839;BME280;39219;53.678;9.856;2023-04-25T02:47:51;76638.09;;;-147.77;72.95
52839;BME280;39219;53.678;9.856;2023-04-25T02:50:17;76642.16;;;-147.77;72.54
52839;BME280;39219;53.678;9.856;2023-04-25T02:52:44;76640.13;;;-147.77;71.63
52839;BME280;39219;53.678;9.856;2023-04-25T02:55:12;76638.09;;;-147.77;71.26
52839;BME280;39219;53.678;9.856;2023-04-25T02:57:38;76644.19;;;-147.77;71.48
52839;BME280;39219;53.678;9.856;2023-04-25T03:00:06;76654.28;;;-147.77;71.28
52839;BME280;39219;53.678;9.856;2023-04-25T03:02:33;76660.38;;;-147.77;71.31
52839;BME280;39219;53.678;9.856;2023-04-25T03:05:00;76698.81;;;-147.77;71.08
52839;BME280;39219;53.678;9.856;2023-04-25T03:07:28;76727.13;;;-147.77;70.43
52839;BME280;39219;53.678;9.856;2023-04-25T03:09:54;76731.16;;;-147.77;70.42
52839;BME280;39219;53.678;9.856;2023-04-25T03:12:22;76755.44;;;-147.77;70.47
52839;BME280;39219;53.678;9.856;2023-04-25T03:14:48;76767.59;;;-147.77;70.86
52839;BME280;39219;53.678;9.856;2023-04-25T03:17:14;76787.81;;;-147.77;71.11
52839;BME280;39219;53.678;9.856;2023-04-25T03:19:41;76810.06;;;-147.77;70.74
52839;BME280;39219;53.678;9.856;2023-04-25T03:22:09;76795.91;;;-147.77;71.05
52839;BME280;39219;53.678;9.856;2023-04-25T03:24:35;76812.09;;;-147.77;70.60
52839;BME280;39219;53.678;9.856;2023-04-25T03:27:02;76834.34;;;-147.77;70.50
52839;BME280;39219;53.678;9.856;2023-04-25T03:29:29;76838.38;;;-147.77;70.29
52839;BME280;39219;53.678;9.856;2023-04-25T03:31:55;76844.44;;;-147.77;70.79
52839;BME280;39219;53.678;9.856;2023-04-25T03:34:21;76848.50;;;-147.77;71.14
52839;BME280;39219;53.678;9.856;2023-04-25T03:36:49;76858.63;;;-147.77;71.19
52839;BME280;39219;53.678;9.856;2023-04-25T03:39:17;76862.66;;;-147.77;71.67
52839;BME280;39219;53.678;9.856;2023-04-25T03:41:43;76868.72;;;-147.77;71.98
52839;BME280;39219;53.678;9.856;2023-04-25T03:44:10;76866.72;;;-147.77;70.87
52839;BME280;39219;53.678;9.856;2023-04-25T03:46:36;76852.53;;;-147.77;71.27
52839;BME280;39219;53.678;9.856;2023-04-25T03:49:02;76836.38;;;-147.77;71.17
52839;BME280;39219;53.678;9.856;2023-04-25T03:51:29;76820.19;;;-147.77;70.29
52839;BME280;39219;53.678;9.856;2023-04-25T03:53:56;76830.28;;;-147.77;69.92
52839;BME280;39219;53.678;9.856;2023-04-25T03:56:24;76820.19;;;-147.77;70.32
52839;BME280;39219;53.678;9.856;2023-04-25T03:58:50;76818.16;;;-147.77;70.48
52839;BME280;39219;53.678;9.856;2023-04-25T04:01:16;76830.28;;;-147.77;70.11
52839;BME280;39219;53.678;9.856;2023-04-25T04:03:43;76836.38;;;-147.77;70.60
52839;BME280;39219;53.678;9.856;2023-04-25T04:06:09;76856.59;;;-147.77;71.71
52839;BME280;39219;53.678;9.856;2023-04-25T04:08:38;76872.78;;;-147.77;71.55
52839;BME280;39219;53.678;9.856;2023-04-25T04:11:04;76870.75;;;-147.77;71.51
52839;BME280;39219;53.678;9.856;2023-04-25T04:13:32;76884.91;;;-147.77;72.35
52839;BME280;39219;53.678;9.856;2023-04-25T04:15:59;76880.88;;;-147.77;72.44
52839;BME280;39219;53.678;9.856;2023-04-25T04:18:25;76876.81;;;-147.77;72.85
52839;BME280;39219;53.678;9.856;2023-04-25T04:20:52;76856.59;;;-147.77;72.92
52839;BME280;39219;53.678;9.856;2023-04-25T04:23:19;76844.44;;;-147.77;72.17
52839;BME280;39219;53.678;9.856;2023-04-25T04:25:46;76844.44;;;-147.77;72.42
52839;BME280;39219;53.678;9.856;2023-04-25T04:28:13;76836.38;;;-147.77;72.66
52839;BME280;39219;53.678;9.856;2023-04-25T04:30:40;76834.34;;;-147.77;71.67
52839;BME280;39219;53.678;9.856;2023-04-25T04:33:07;76832.31;;;-147.77;71.35
52839;BME280;39219;53.678;9.856;2023-04-25T04:35:34;76828.28;;;-147.77;71.35
52839;BME280;39219;53.678;9.856;2023-04-25T04:38:00;76822.19;;;-147.77;71.42
52839;BME280;39219;53.678;9.856;2023-04-25T04:40:27;76824.22;;;-147.77;70.35
52839;BME280;39219;53.678;9.856;2023-04-25T04:42:55;76820.19;;;-147.77;70.34
52839;BME280;39219;53.678;9.856;2023-04-25T04:45:22;76812.09;;;-147.77;69.63
52839;BME280;39219;53.678;9.856;2023-04-25T04:47:50;76824.22;;;-147.77;70.11
52839;BME280;39219;53.678;9.856;2023-04-25T04:50:17;76826.25;;;-147.77;70.13
52839;BME280;39219;53.678;9.856;2023-04-25T04:52:44;76824.22;;;-147.77;70.60
52839;BME280;39219;53.678;9.856;2023-04-25T04:55:10;76832.31;;;-147.77;71.13
52839;BME280;39219;53.678;9.856;2023-04-25T04:57:37;76842.44;;;-147.77;71.54
52839;BME280;39219;53.678;9.856;2023-04-25T05:00:04;76860.63;;;-147.77;72.47
52839;BME280;39219;53.678;9.856;2023-04-25T05:02:33;76866.72;;;-147.77;73.37
52839;BME280;39219;53.678;9.856;2023-04-25T05:05:01;76868.72;;;-147.77;72.97
52839;BME280;39219;53.678;9.856;2023-04-25T05:07:27;76846.47;;;-147.77;75.22
52839;BME280;39219;53.678;9.856;2023-04-25T05:09:54;76834.34;;;-147.77;75.52
52839;BME280;39219;53.678;9.856;2023-04-25T05:12:20;76842.44;;;-147.77;76.13
52839;BME280;39219;53.678;9.856;2023-04-25T05:14:47;76852.53;;;-147.77;75.89
52839;BME280;39219;53.678;9.856;2023-04-25T05:17:13;76852.53;;;-147.77;76.77
52839;BME280;39219;53.678;9.856;2023-04-25T05:19:40;76856.59;;;-147.77;77.22
52839;BME280;39219;53.678;9.856;2023-04-25T05:22:08;76854.56;;;-147.77;78.06
52839;BME280;39219;53.678;9.856;2023-04-25T05:24:34;76850.53;;;-147.77;78.79
52839;BME280;39219;53.678;9.856;2023-04-25T05:27:01;76848.50;;;-147.77;78.23
52839;BME280;39219;53.678;9.856;2023-04-25T05:29:27;76836.38;;;-147.77;78.46
52839;BME280;39219;53.678;9.856;2023-04-25T05:31:54;76826.25;;;-147.77;78.63
52839;BME280;39219;53.678;9.856;2023-04-25T05:34:20;76824.22;;;-147.77;78.67
52839;BME280;39219;53.678;9.856;2023-04-25T05:36:47;76820.19;;;-147.77;78.13
52839;BME280;39219;53.678;9.856;2023-04-25T05:39:16;76824.22;;;-147.77;77.94
52839;BME280;39219;53.678;9.856;2023-04-25T05:41:43;76795.91;;;-147.77;79.34
52839;BME280;39219;53.678;9.856;2023-04-25T05:44:09;76818.16;;;-147.77;78.35
52839;BME280;39219;53.678;9.856;2023-04-25T05:46:36;76795.91;;;-147.77;78.70
52839;BME280;39219;53.678;9.856;2023-04-25T05:49:02;76789.84;;;-147.77;78.36
52839;BME280;39219;53.678;9.856;2023-04-25T05:51:29;76775.66;;;-147.77;77.75
52839;BME280;39219;53.678;9.856;2023-04-25T05:53:56;76765.56;;;-147.77;78.45
52839;BME280;39219;53.678;9.856;2023-04-25T05:56:24;76753.41;;;-147.77;77.51
52839;BME280;39219;53.678;9.856;2023-04-25T05:58:51;76729.16;;;-147.77;76.30
52839;BME280;39219;53.678;9.856;2023-04-25T06:01:17;76710.94;;;-147.77;76.18
52839;BME280;39219;53.678;9.856;2023-04-25T06:03:44;76704.88;;;-147.77;75.49
52839;BME280;39219;53.678;9.856;2023-04-25T06:06:11;76696.78;;;-147.77;75.63
52839;BME280;39219;53.678;9.856;2023-04-25T06:08:37;76688.69;;;-147.77;75.53
52839;BME280;39219;53.678;9.856;2023-04-25T06:11:04;76702.84;;;-147.77;75.30
52839;BME280;39219;53.678;9.856;2023-04-25T06:13:32;76717.00;;;-147.77;73.84
52839;BME280;39219;53.678;9.856;2023-04-25T06:15:59;76694.75;;;-147.77;73.53
52839;BME280;39219;53.678;9.856;2023-04-25T06:18:25;76700.81;;;-147.77;70.89
52839;BME280;39219;53.678;9.856;2023-04-25T06:20:52;76727.13;;;-147.77;71.54
52839;BME280;39219;53.678;9.856;2023-04-25T06:23:18;76735.22;;;-147.77;71.49
52839;BME280;39219;53.678;9.856;2023-04-25T06:25:45;76759.50;;;-147.77;72.09
52839;BME280;39219;53.678;9.856;2023-04-25T06:28:11;76737.22;;;-147.77;73.11
52839;BME280;39219;53.678;9.856;2023-04-25T06:30:39;76749.38;;;-147.77;73.47
52839;BME280;39219;53.678;9.856;2023-04-25T06:33:06;76753.41;;;-147.77;73.68
52839;BME280;39219;53.678;9.856;2023-04-25T06:35:33;76745.31;;;-147.77;73.85
52839;BME280;39219;53.678;9.856;2023-04-25T06:38:00;76733.19;;;-147.77;73.72
52839;BME280;39219;53.678;9.856;2023-04-25T06:40:26;76725.09;;;-147.77;74.66
52839;BME280;39219;53.678;9.856;2023-04-25T06:42:53;76710.94;;;-147.77;73.34
52839;BME280;39219;53.678;9.856;2023-04-25T06:45:19;76702.84;;;-147.77;70.71
52839;BME280;39219;53.678;9.856;2023-04-25T06:47:47;76690.72;;;-147.77;70.58
52839;BME280;39219;53.678;9.856;2023-04-25T06:50:14;76702.84;;;-147.77;70.84
52839;BME280;39219;53.678;9.856;2023-04-25T06:52:40;76694.75;;;-147.77;69.96
52839;BME280;39219;53.678;9.856;2023-04-25T06:55:07;76702.84;;;-147.77;69.62
52839;BME280;39219;53.678;9.856;2023-04-25T06:57:34;76694.75;;;-147.77;70.57
52839;BME280;39219;53.678;9.856;2023-04-25T07:00:01;76694.75;;;-147.77;69.94
52839;BME280;39219;53.678;9.856;2023-04-25T07:02:30;76745.31;;;-147.77;69.76
52839;BME280;39219;53.678;9.856;2023-04-25T07:04:58;76779.72;;;-147.77;70.19
52839;BME280;39219;53.678;9.856;2023-04-25T07:07:25;76816.13;;;-147.77;70.12
52839;BME280;39219;53.678;9.856;2023-04-25T07:09:51;76822.19;;;-147.77;71.83
52839;BME280;39219;53.678;9.856;2023-04-25T07:12:18;76791.84;;;-147.77;72.37
52839;BME280;39219;53.678;9.856;2023-04-25T07:14:44;76783.75;;;-147.77;70.49
52839;BME280;39219;53.678;9.856;2023-04-25T07:17:11;76757.47;;;-147.77;71.27
52839;BME280;39219;53.678;9.856;2023-04-25T07:19:37;76719.03;;;-147.77;71.27
52839;BME280;39219;53.678;9.856;2023-04-25T07:22:06;76676.53;;;-147.77;69.96
52839;BME280;39219;53.678;9.856;2023-04-25T07:24:32;76636.09;;;-147.77;69.91
52839;BME280;39219;53.678;9.856;2023-04-25T07:26:59;76617.88;;;-147.77;69.36
52839;BME280;39219;53.678;9.856;2023-04-25T07:29:26;76573.38;;;-147.77;68.09
52839;BME280;39219;53.678;9.856;2023-04-25T07:31:52;76530.91;;;-147.77;66.87
52839;BME280;39219;53.678;9.856;2023-04-25T07:34:19;76520.78;;;-147.77;65.60
52839;BME280;39219;53.678;9.856;2023-04-25T07:36:46;76512.69;;;-147.77;65.17
52839;BME280;39219;53.678;9.856;2023-04-25T07:39:14;76502.56;;;-147.77;67.56
52839;BME280;39219;53.678;9.856;2023-04-25T07:41:40;76510.66;;;-147.77;66.18
52839;BME280;39219;53.678;9.856;2023-04-25T07:44:07;76417.63;;;-147.77;67.57
52839;BME280;39219;53.678;9.856;2023-04-25T07:46:33;76300.28;;;-147.77;63.24
52839;BME280;39219;53.678;9.856;2023-04-25T07:49:00;76342.78;;;-147.77;61.18
52839;BME280;39219;53.678;9.856;2023-04-25T07:51:26;76385.25;;;-147.77;60.89
52839;BME280;39219;53.678;9.856;2023-04-25T07:53:53;76383.22;;;-147.77;62.08
52839;BME280;39219;53.678;9.856;2023-04-25T07:56:20;76415.59;;;-147.77;61.21
52839;BME280;39219;53.678;9.856;2023-04-25T07:58:47;76431.78;;;-147.77;61.71
52839;BME280;39219;53.678;9.856;2023-04-25T08:01:14;76474.25;;;-147.77;63.15
52839;BME280;39219;53.678;9.856;2023-04-25T08:03:40;76571.34;;;-147.77;66.82
52839;BME280;39219;53.678;9.856;2023-04-25T08:06:07;76670.47;;;-147.77;68.13
52839;BME280;39219;53.678;9.856;2023-04-25T08:08:33;76733.19;;;-147.77;68.75
52839;BME280;39219;53.678;9.856;2023-04-25T08:11:00;76761.50;;;-147.77;70.82
52839;BME280;39219;53.678;9.856;2023-04-25T08:13:27;76737.22;;;-147.77;71.26
52839;BME280;39219;53.678;9.856;2023-04-25T08:15:54;76733.19;;;-147.77;72.91
52839;BME280;39219;53.678;9.856;2023-04-25T08:18:21;76745.31;;;-147.77;72.88
52839;BME280;39219;53.678;9.856;2023-04-25T08:20:47;76714.97;;;-147.77;74.30
52839;BME280;39219;53.678;9.856;2023-04-25T08:23:13;76583.50;;;-147.77;74.68
52839;BME280;39219;53.678;9.856;2023-04-25T08:25:40;76445.94;;;-147.77;69.60
52839;BME280;39219;53.678;9.856;2023-04-25T08:28:06;76365.03;;;-147.77;69.33
52839;BME280;39219;53.678;9.856;2023-04-25T08:30:34;76267.94;;;-147.77;62.34
52839;BME280;39219;53.678;9.856;2023-04-25T08:33:01;76294.22;;;-147.77;62.71
52839;BME280;39219;53.678;9.856;2023-04-25T08:35:27;76342.78;;;-147.77;61.24
52839;BME280;39219;53.678;9.856;2023-04-25T08:37:54;76407.50;;;-147.77;63.24
52839;BME280;39219;53.678;9.856;2023-04-25T08:40:22;76350.88;;;-147.77;63.72
52839;BME280;39219;53.678;9.856;2023-04-25T08:42:52;76371.09;;;-147.77;65.52
52839;BME280;39219;53.678;9.856;2023-04-25T08:45:20;76170.84;;;-147.77;61.64
52839;BME280;39219;53.678;9.856;2023-04-25T08:47:49;76083.84;;;-147.77;57.59
52839;BME280;39219;53.678;9.856;2023-04-25T08:50:18;76033.28;;;-147.77;54.18
52839;BME280;39219;53.678;9.856;2023-04-25T08:52:46;76047.44;;;-147.77;49.49
52839;BME280;39219;53.678;9.856;2023-04-25T08:55:15;76156.69;;;-147.77;48.59
52839;BME280;39219;53.678;9.856;2023-04-25T08:57:42;76227.47;;;-147.77;48.88
52839;BME280;39219;53.678;9.856;2023-04-25T09:00:10;76259.84;;;-147.77;50.00
52839;BME280;39219;53.678;9.856;2023-04-25T09:02:37;76332.66;;;-147.77;51.80
52839;BME280;39219;53.678;9.856;2023-04-25T09:05:06;76435.81;;;-147.77;54.91
52839;BME280;39219;53.678;9.856;2023-04-25T09:07:34;76454.03;;;-147.77;56.79
52839;BME280;39219;53.678;9.856;2023-04-25T09:10:01;76454.03;;;-147.77;55.79
52839;BME280;39219;53.678;9.856;2023-04-25T09:12:29;76397.38;;;-147.77;54.39
52839;BME280;39219;53.678;9.856;2023-04-25T09:15:06;76288.16;;;-147.77;53.57
52839;BME280;39219;53.678;9.856;2023-04-25T09:17:33;76197.13;;;-147.77;50.62
52839;BME280;39219;53.678;9.856;2023-04-25T09:20:09;76156.69;;;-147.77;46.38
52839;BME280;39219;53.678;9.856;2023-04-25T09:22:37;76207.25;;;-147.77;46.27
52839;BME280;39219;53.678;9.856;2023-04-25T09:25:08;76265.91;;;-147.77;46.80
52839;BME280;39219;53.678;9.856;2023-04-25T09:27:34;76423.69;;;-147.77;50.70
52839;BME280;39219;53.678;9.856;2023-04-25T09:30:01;76551.13;;;-147.77;57.42
52839;BME280;39219;53.678;9.856;2023-04-25T09:32:28;76615.84;;;-147.77;64.15
52839;BME280;39219;53.678;9.856;2023-04-25T09:34:56;76680.59;;;-147.77;64.48
52839;BME280;39219;53.678;9.856;2023-04-25T09:37:25;76636.09;;;-147.77;64.41
52839;BME280;39219;53.678;9.856;2023-04-25T09:39:53;76599.69;;;-147.77;64.56
52839;BME280;39219;53.678;9.856;2023-04-25T09:42:22;76512.69;;;-147.77;63.67
52839;BME280;39219;53.678;9.856;2023-04-25T09:44:51;76447.97;;;-147.77;62.12
52839;BME280;39219;53.678;9.856;2023-04-25T09:47:18;76373.13;;;-147.77;61.36
52839;BME280;39219;53.678;9.856;2023-04-25T09:49:47;76310.41;;;-147.77;62.18
52839;BME280;39219;53.678;9.856;2023-04-25T09:52:15;76306.34;;;-147.77;57.61
52839;BME280;39219;53.678;9.856;2023-04-25T09:54:44;76286.13;;;-147.77;55.59
52839;BME280;39219;53.678;9.856;2023-04-25T09:57:12;76267.94;;;-147.77;55.76
52839;BME280;39219;53.678;9.856;2023-04-25T09:59:43;76274.00;;;-147.77;53.55
52839;BME280;39219;53.678;9.856;2023-04-25T10:02:10;76249.72;;;-147.77;48.39
52839;BME280;39219;53.678;9.856;2023-04-25T10:04:38;76257.81;;;-147.77;46.83
52839;BME280;39219;53.678;9.856;2023-04-25T10:07:06;76261.84;;;-147.77;46.47
52839;BME280;39219;53.678;9.856;2023-04-25T10:09:36;76243.66;;;-147.77;47.04
52839;BME280;39219;53.678;9.856;2023-04-25T10:12:07;76276.03;;;-147.77;46.45
52839;BME280;39219;53.678;9.856;2023-04-25T10:14:34;76243.66;;;-147.77;49.88
52839;BME280;39219;53.678;9.856;2023-04-25T10:17:01;76245.69;;;-147.77;48.11
52839;BME280;39219;53.678;9.856;2023-04-25T10:19:27;76269.94;;;-147.77;47.45
52839;BME280;39219;53.678;9.856;2023-04-25T10:21:58;76239.59;;;-147.77;48.69
52839;BME280;39219;53.678;9.856;2023-04-25T10:24:28;76201.19;;;-147.77;49.82
52839;BME280;39219;53.678;9.856;2023-04-25T10:26:56;76215.34;;;-147.77;46.98
52839;BME280;39219;53.678;9.856;2023-04-25T10:29:25;76280.06;;;-147.77;48.05
52839;BME280;39219;53.678;9.856;2023-04-25T10:31:52;76227.47;;;-147.77;51.52
52839;BME280;39219;53.678;9.856;2023-04-25T10:34:19;76189.03;;;-147.77;49.22
52839;BME280;39219;53.678;9.856;2023-04-25T10:36:49;76174.88;;;-147.77;48.72
52839;BME280;39219;53.678;9.856;2023-04-25T10:39:22;76205.22;;;-147.77;45.78
52839;BME280;39219;53.678;9.856;2023-04-25T10:41:53;76312.44;;;-147.77;45.80
52839;BME280;39219;53.678;9.856;2023-04-25T10:44:20;76389.28;;;-147.77;47.13
52839;BME280;39219;53.678;9.856;2023-04-25T10:46:48;76435.81;;;-147.77;49.22
52839;BME280;39219;53.678;9.856;2023-04-25T10:49:29;76429.75;;;-147.77;50.32
52839;BME280;39219;53.678;9.856;2023-04-25T10:52:11;76413.56;;;-147.77;48.36
52839;BME280;39219;53.678;9.856;2023-04-25T10:54:40;76460.09;;;-147.77;49.93
52839;BME280;39219;53.678;9.856;2023-04-25T10:57:07;76549.09;;;-147.77;51.41
52839;BME280;39219;53.678;9.856;2023-04-25T10:59:33;76680.59;;;-147.77;51.42
52839;BME280;39219;53.678;9.856;2023-04-25T11:02:11;76700.81;;;-147.77;54.56
52839;BME280;39219;53.678;9.856;2023-04-25T11:04:40;76684.63;;;-147.77;56.43
52839;BME280;39219;53.678;9.856;2023-04-25T11:07:12;76684.63;;;-147.77;56.36
52839;BME280;39219;53.678;9.856;2023-04-25T11:09:40;76638.09;;;-147.77;55.21
52839;BME280;39219;53.678;9.856;2023-04-25T11:12:07;76621.94;;;-147.77;54.20
52839;BME280;39219;53.678;9.856;2023-04-25T11:14:35;76613.84;;;-147.77;52.50
52839;BME280;39219;53.678;9.856;2023-04-25T11:17:03;76599.69;;;-147.77;52.62
52839;BME280;39219;53.678;9.856;2023-04-25T11:19:30;76581.47;;;-147.77;53.37
52839;BME280;39219;53.678;9.856;2023-04-25T11:21:58;76557.19;;;-147.77;55.12
52839;BME280;39219;53.678;9.856;2023-04-25T11:24:26;76500.56;;;-147.77;54.73
52839;BME280;39219;53.678;9.856;2023-04-25T11:26:53;76435.81;;;-147.77;52.01
52839;BME280;39219;53.678;9.856;2023-04-25T11:29:21;76399.41;;;-147.77;49.12
52839;BME280;39219;53.678;9.856;2023-04-25T11:31:48;76358.94;;;-147.77;50.62
52839;BME280;39219;53.678;9.856;2023-04-25T11:34:18;76312.44;;;-147.77;50.23
52839;BME280;39219;53.678;9.856;2023-04-25T11:36:45;76265.91;;;-147.77;46.49
52839;BME280;39219;53.678;9.856;2023-04-25T11:39:12;76269.94;;;-147.77;43.94
52839;BME280;39219;53.678;9.856;2023-04-25T11:41:41;76249.72;;;-147.77;45.46
52839;BME280;39219;53.678;9.856;2023-04-25T11:44:07;76219.38;;;-147.77;43.72
52839;BME280;39219;53.678;9.856;2023-04-25T11:46:34;76233.53;;;-147.77;43.36
52839;BME280;39219;53.678;9.856;2023-04-25T11:49:01;76207.25;;;-147.77;46.18
52839;BME280;39219;53.678;9.856;2023-04-25T11:51:29;76203.19;;;-147.77;41.28
52839;BME280;39219;53.678;9.856;2023-04-25T11:53:56;76168.81;;;-147.77;42.99
52839;BME280;39219;53.678;9.856;2023-04-25T11:56:22;76221.41;;;-147.77;40.63
52839;BME280;39219;53.678;9.856;2023-04-25T11:58:56;76292.19;;;-147.77;42.06
52839;BME280;39219;53.678;9.856;2023-04-25T12:01:29;76334.69;;;-147.77;41.71
52839;BME280;39219;53.678;9.856;2023-04-25T12:03:56;76403.44;;;-147.77;42.57
52839;BME280;39219;53.678;9.856;2023-04-25T12:06:26;76427.72;;;-147.77;45.24
52839;BME280;39219;53.678;9.856;2023-04-25T12:09:06;76411.53;;;-147.77;43.71
52839;BME280;39219;53.678;9.856;2023-04-25T12:11:40;76383.22;;;-147.77;46.42
52839;BME280;39219;53.678;9.856;2023-04-25T12:14:07;76318.50;;;-147.77;44.32
52839;BME280;39219;53.678;9.856;2023-04-25T12:16:40;76249.72;;;-147.77;47.18
52839;BME280;39219;53.678;9.856;2023-04-25T12:19:07;76223.44;;;-147.77;44.04
52839;BME280;39219;53.678;9.856;2023-04-25T12:21:34;76269.94;;;-147.77;42.38
52839;BME280;39219;53.678;9.856;2023-04-25T12:24:12;76274.00;;;-147.77;42.66
52839;BME280;39219;53.678;9.856;2023-04-25T12:26:49;76233.53;;;-147.77;43.92
52839;BME280;39219;53.678;9.856;2023-04-25T12:29:18;76168.81;;;-147.77;42.46
52839;BME280;39219;53.678;9.856;2023-04-25T12:31:44;76154.66;;;-147.77;41.09
52839;BME280;39219;53.678;9.856;2023-04-25T12:34:11;76251.75;;;-147.77;40.35
52839;BME280;39219;53.678;9.856;2023-04-25T12:36:38;76342.78;;;-147.77;41.36
52839;BME280;39219;53.678;9.856;2023-04-25T12:39:04;76470.22;;;-147.77;44.63
52839;BME280;39219;53.678;9.856;2023-04-25T12:41:33;76508.66;;;-147.77;45.21